sensor_id;sensor_type;location;lat;lon;timestamp;P1;durP1;ratioP1;P2;durP2;ratioP2
52294;SDS011;38243;53.212;6.574;2023-11-19T00:00:08;1.47;;;0.70;;
52294;SDS011;38243;53.212;6.574;2023-11-19T00:02:39;2.95;;;1.00;;
52294;SDS011;38243;53.212;6.574;2023-11-19T00:05:05;1.35;;;0.85;;
52294;SDS011;38243;53.212;6.574;2023-11-19T00:07:36;0.93;;;0.73;;
52294;SDS011;38243;53.212;6.574;2023-11-19T00:10:13;2.50;;;0.75;;
52294;SDS011;38243;53.212;6.574;2023-11-19T00:12:44;2.70;;;1.00;;
52294;SDS011;38243;53.212;6.574;2023-11-19T00:15:11;1.50;;;0.77;;
52294;SDS011;38243;53.212;6.574;2023-11-19T00:17:40;2.35;;;0.75;;
52294;SDS011;38243;53.212;6.574;2023-11-19T00:20:10;2.28;;;0.70;;
52294;SDS011;38243;53.212;6.574;2023-11-19T00:22:39;1.50;;;0.70;;
52294;SDS011;38243;53.212;6.574;2023-11-19T00:25:07;3.70;;;0.80;;
52294;SDS011;38243;53.212;6.574;2023-11-19T00:27:33;2.42;;;0.98;;
52294;SDS011;38243;53.212;6.574;2023-11-19T00:29:59;1.45;;;0.73;;
52294;SDS011;38243;53.212;6.574;2023-11-19T00:32:25;1.60;;;0.70;;
52294;SDS011;38243;53.212;6.574;2023-11-19T00:34:54;2.92;;;1.00;;
52294;SDS011;38243;53.212;6.574;2023-11-19T00:37:20;2.10;;;1.13;;
52294;SDS011;38243;53.212;6.574;2023-11-19T00:39:46;1.90;;;0.70;;
52294;SDS011;38243;53.212;6.574;2023-11-19T00:42:12;1.65;;;0.80;;
52294;SDS011;38243;53.212;6.574;2023-11-19T00:44:38;1.58;;;0.70;;
52294;SDS011;38243;53.212;6.574;2023-11-19T00:47:06;3.10;;;0.83;;
52294;SDS011;38243;53.212;6.574;2023-11-19T00:49:35;2.20;;;0.88;;
52294;SDS011;38243;53.212;6.574;2023-11-19T00:52:24;3.20;;;1.00;;
52294;SDS011;38243;53.212;6.574;2023-11-19T00:54:50;2.83;;;1.00;;
52294;SDS011;38243;53.212;6.574;2023-11-19T00:57:16;2.15;;;0.80;;
52294;SDS011;38243;53.212;6.574;2023-11-19T00:59:42;3.90;;;1.07;;
52294;SDS011;38243;53.212;6.574;2023-11-19T01:02:10;3.28;;;0.90;;
52294;SDS011;38243;53.212;6.574;2023-11-19T01:04:36;2.00;;;0.80;;
52294;SDS011;38243;53.212;6.574;2023-11-19T01:07:05;3.60;;;1.05;;
52294;SDS011;38243;53.212;6.574;2023-11-19T01:09:32;2.45;;;0.85;;
52294;SDS011;38243;53.212;6.574;2023-11-19T01:11:59;4.40;;;1.10;;
52294;SDS011;38243;53.212;6.574;2023-11-19T01:14:26;3.60;;;0.75;;
52294;SDS011;38243;53.212;6.574;2023-11-19T01:16:52;4.25;;;1.10;;
52294;SDS011;38243;53.212;6.574;2023-11-19T01:19:19;4.03;;;1.00;;
52294;SDS011;38243;53.212;6.574;2023-11-19T01:21:52;3.33;;;1.00;;
52294;SDS011;38243;53.212;6.574;2023-11-19T01:24:29;3.70;;;1.38;;
52294;SDS011;38243;53.212;6.574;2023-11-19T01:26:58;4.50;;;1.02;;
52294;SDS011;38243;53.212;6.574;2023-11-19T01:29:42;3.75;;;1.05;;
52294;SDS011;38243;53.212;6.574;2023-11-19T01:32:16;4.28;;;1.10;;
52294;SDS011;38243;53.212;6.574;2023-11-19T01:34:45;4.55;;;1.40;;
52294;SDS011;38243;53.212;6.574;2023-11-19T01:37:13;3.97;;;1.23;;
52294;SDS011;38243;53.212;6.574;2023-11-19T01:39:44;5.78;;;1.42;;
52294;SDS011;38243;53.212;6.574;2023-11-19T01:42:12;4.55;;;1.20;;
52294;SDS011;38243;53.212;6.574;2023-11-19T01:44:38;5.05;;;1.10;;
52294;SDS011;38243;53.212;6.574;2023-11-19T01:47:22;4.90;;;1.20;;
52294;SDS011;38243;53.212;6.574;2023-11-19T01:49:55;4.75;;;1.10;;
52294;SDS011;38243;53.212;6.574;2023-11-19T01:52:22;3.72;;;1.38;;
52294;SDS011;38243;53.212;6.574;2023-11-19T01:54:50;5.30;;;1.38;;
52294;SDS011;38243;53.212;6.574;2023-11-19T01:57:17;3.77;;;1.17;;
52294;SDS011;38243;53.212;6.574;2023-11-19T01:59:45;6.57;;;1.58;;
52294;SDS011;38243;53.212;6.574;2023-11-19T02:02:13;4.40;;;1.10;;
52294;SDS011;38243;53.212;6.574;2023-11-19T02:04:42;4.28;;;1.35;;
52294;SDS011;38243;53.212;6.574;2023-11-19T02:07:08;4.05;;;1.10;;
52294;SDS011;38243;53.212;6.574;2023-11-19T02:09:43;6.25;;;1.50;;
52294;SDS011;38243;53.212;6.574;2023-11-19T02:12:09;4.57;;;1.60;;
52294;SDS011;38243;53.212;6.574;2023-11-19T02:14:37;7.13;;;1.55;;
52294;SDS011;38243;53.212;6.574;2023-11-19T02:17:05;4.73;;;1.43;;
52294;SDS011;38243;53.212;6.574;2023-11-19T02:19:38;4.43;;;1.30;;
52294;SDS011;38243;53.212;6.574;2023-11-19T02:22:04;8.97;;;1.77;;
52294;SDS011;38243;53.212;6.574;2023-11-19T02:24:30;3.90;;;1.02;;
52294;SDS011;38243;53.212;6.574;2023-11-19T02:27:36;4.55;;;1.45;;
52294;SDS011;38243;53.212;6.574;2023-11-19T02:29:55;5.83;;;1.67;;
52294;SDS011;38243;53.212;6.574;2023-11-19T02:32:20;6.07;;;1.63;;
52294;SDS011;38243;53.212;6.574;2023-11-19T02:34:46;5.28;;;1.60;;
52294;SDS011;38243;53.212;6.574;2023-11-19T02:37:12;5.27;;;1.70;;
52294;SDS011;38243;53.212;6.574;2023-11-19T02:39:40;6.73;;;2.13;;
52294;SDS011;38243;53.212;6.574;2023-11-19T02:42:07;5.43;;;1.70;;
52294;SDS011;38243;53.212;6.574;2023-11-19T02:44:33;5.07;;;1.33;;
52294;SDS011;38243;53.212;6.574;2023-11-19T02:47:02;6.25;;;1.70;;
52294;SDS011;38243;53.212;6.574;2023-11-19T02:49:33;5.72;;;1.60;;
52294;SDS011;38243;53.212;6.574;2023-11-19T02:51:58;6.95;;;2.00;;
52294;SDS011;38243;53.212;6.574;2023-11-19T02:54:24;5.67;;;1.40;;
52294;SDS011;38243;53.212;6.574;2023-11-19T02:56:53;9.95;;;1.98;;
52294;SDS011;38243;53.212;6.574;2023-11-19T02:59:27;6.22;;;1.40;;
52294;SDS011;38243;53.212;6.574;2023-11-19T03:02:04;6.80;;;1.50;;
52294;SDS011;38243;53.212;6.574;2023-11-19T03:04:32;5.93;;;1.52;;
52294;SDS011;38243;53.212;6.574;2023-11-19T03:09:56;6.95;;;1.75;;
52294;SDS011;38243;53.212;6.574;2023-11-19T03:42:13;6.47;;;1.80;;
52294;SDS011;38243;53.212;6.574;2023-11-19T03:45:13;7.43;;;1.75;;
52294;SDS011;38243;53.212;6.574;2023-11-19T03:48:36;7.63;;;2.30;;
52294;SDS011;38243;53.212;6.574;2023-11-19T03:54:59;8.68;;;2.38;;
52294;SDS011;38243;53.212;6.574;2023-11-19T04:04:45;7.40;;;1.80;;
52294;SDS011;38243;53.212;6.574;2023-11-19T04:18:36;7.25;;;1.92;;
52294;SDS011;38243;53.212;6.574;2023-11-19T04:45:53;7.22;;;1.80;;
52294;SDS011;38243;53.212;6.574;2023-11-19T04:49:33;10.35;;;2.22;;
52294;SDS011;38243;53.212;6.574;2023-11-19T04:56:37;9.85;;;2.25;;
52294;SDS011;38243;53.212;6.574;2023-11-19T05:00:17;7.20;;;2.20;;
52294;SDS011;38243;53.212;6.574;2023-11-19T05:07:29;6.78;;;2.03;;
52294;SDS011;38243;53.212;6.574;2023-11-19T05:11:00;11.05;;;2.20;;
52294;SDS011;38243;53.212;6.574;2023-11-19T05:20:52;10.77;;;2.25;;
52294;SDS011;38243;53.212;6.574;2023-11-19T05:31:12;11.77;;;3.10;;
52294;SDS011;38243;53.212;6.574;2023-11-19T05:34:25;11.43;;;2.17;;
52294;SDS011;38243;53.212;6.574;2023-11-19T05:41:46;9.98;;;2.70;;
52294;SDS011;38243;53.212;6.574;2023-11-19T05:51:30;12.35;;;2.67;;
52294;SDS011;38243;53.212;6.574;2023-11-19T05:54:48;13.60;;;2.70;;
52294;SDS011;38243;53.212;6.574;2023-11-19T06:04:59;10.57;;;2.65;;
52294;SDS011;38243;53.212;6.574;2023-11-19T06:15:28;14.10;;;2.75;;
52294;SDS011;38243;53.212;6.574;2023-11-19T06:22:10;13.05;;;2.95;;
52294;SDS011;38243;53.212;6.574;2023-11-19T06:50:04;10.43;;;2.47;;
52294;SDS011;38243;53.212;6.574;2023-11-19T06:56:52;11.23;;;2.80;;
52294;SDS011;38243;53.212;6.574;2023-11-19T07:24:46;13.75;;;3.15;;
52294;SDS011;38243;53.212;6.574;2023-11-19T07:27:35;17.40;;;3.35;;
52294;SDS011;38243;53.212;6.574;2023-11-19T07:30:43;15.20;;;3.40;;
52294;SDS011;38243;53.212;6.574;2023-11-19T07:33:21;13.77;;;3.15;;
52294;SDS011;38243;53.212;6.574;2023-11-19T07:38:47;15.13;;;3.20;;
52294;SDS011;38243;53.212;6.574;2023-11-19T07:41:18;15.38;;;3.63;;
52294;SDS011;38243;53.212;6.574;2023-11-19T07:43:49;16.25;;;3.30;;
52294;SDS011;38243;53.212;6.574;2023-11-19T07:46:26;17.23;;;3.33;;
52294;SDS011;38243;53.212;6.574;2023-11-19T07:48:54;15.23;;;3.20;;
52294;SDS011;38243;53.212;6.574;2023-11-19T07:51:54;16.08;;;3.72;;
52294;SDS011;38243;53.212;6.574;2023-11-19T07:54:33;14.20;;;3.60;;
52294;SDS011;38243;53.212;6.574;2023-11-19T07:56:58;15.90;;;3.72;;
52294;SDS011;38243;53.212;6.574;2023-11-19T07:59:27;16.63;;;3.95;;
52294;SDS011;38243;53.212;6.574;2023-11-19T08:02:00;18.15;;;3.95;;
52294;SDS011;38243;53.212;6.574;2023-11-19T08:04:30;17.97;;;3.87;;
52294;SDS011;38243;53.212;6.574;2023-11-19T08:06:58;20.00;;;3.83;;
52294;SDS011;38243;53.212;6.574;2023-11-19T08:09:30;17.02;;;3.85;;
52294;SDS011;38243;53.212;6.574;2023-11-19T08:11:56;23.73;;;4.18;;
52294;SDS011;38243;53.212;6.574;2023-11-19T08:14:21;16.87;;;3.70;;
52294;SDS011;38243;53.212;6.574;2023-11-19T08:16:49;15.38;;;3.80;;
52294;SDS011;38243;53.212;6.574;2023-11-19T08:19:33;18.40;;;3.83;;
52294;SDS011;38243;53.212;6.574;2023-11-19T08:22:01;22.58;;;4.38;;
52294;SDS011;38243;53.212;6.574;2023-11-19T08:24:27;16.80;;;4.03;;
52294;SDS011;38243;53.212;6.574;2023-11-19T08:26:56;19.05;;;4.03;;
52294;SDS011;38243;53.212;6.574;2023-11-19T08:29:22;18.40;;;3.55;;
52294;SDS011;38243;53.212;6.574;2023-11-19T08:32:03;15.68;;;4.03;;
52294;SDS011;38243;53.212;6.574;2023-11-19T08:34:35;17.67;;;3.72;;
52294;SDS011;38243;53.212;6.574;2023-11-19T08:37:01;20.97;;;4.43;;
52294;SDS011;38243;53.212;6.574;2023-11-19T08:39:31;19.40;;;4.32;;
52294;SDS011;38243;53.212;6.574;2023-11-19T08:41:57;17.17;;;4.20;;
52294;SDS011;38243;53.212;6.574;2023-11-19T08:44:23;20.23;;;4.40;;
52294;SDS011;38243;53.212;6.574;2023-11-19T08:46:59;16.50;;;4.00;;
52294;SDS011;38243;53.212;6.574;2023-11-19T08:49:43;17.30;;;3.97;;
52294;SDS011;38243;53.212;6.574;2023-11-19T08:52:26;18.48;;;4.03;;
52294;SDS011;38243;53.212;6.574;2023-11-19T08:54:59;17.90;;;4.20;;
52294;SDS011;38243;53.212;6.574;2023-11-19T08:57:28;17.50;;;3.93;;
52294;SDS011;38243;53.212;6.574;2023-11-19T09:00:00;18.67;;;4.03;;
52294;SDS011;38243;53.212;6.574;2023-11-19T09:02:42;16.08;;;3.70;;
52294;SDS011;38243;53.212;6.574;2023-11-19T09:05:11;19.37;;;3.80;;
52294;SDS011;38243;53.212;6.574;2023-11-19T09:07:37;17.77;;;3.65;;
52294;SDS011;38243;53.212;6.574;2023-11-19T09:10:04;16.20;;;3.97;;
52294;SDS011;38243;53.212;6.574;2023-11-19T09:12:33;18.97;;;4.10;;
52294;SDS011;38243;53.212;6.574;2023-11-19T09:15:27;18.67;;;4.00;;
52294;SDS011;38243;53.212;6.574;2023-11-19T09:29:53;18.83;;;4.70;;
52294;SDS011;38243;53.212;6.574;2023-11-19T09:32:25;16.70;;;4.15;;
52294;SDS011;38243;53.212;6.574;2023-11-19T09:35:18;19.08;;;4.18;;
52294;SDS011;38243;53.212;6.574;2023-11-19T09:42:23;16.50;;;3.58;;
52294;SDS011;38243;53.212;6.574;2023-11-19T09:47:50;14.73;;;3.95;;
52294;SDS011;38243;53.212;6.574;2023-11-19T09:55:24;16.17;;;3.55;;
52294;SDS011;38243;53.212;6.574;2023-11-19T10:05:32;17.20;;;3.67;;
52294;SDS011;38243;53.212;6.574;2023-11-19T10:12:16;12.15;;;3.33;;
52294;SDS011;38243;53.212;6.574;2023-11-19T10:35:04;16.93;;;3.47;;
52294;SDS011;38243;53.212;6.574;2023-11-19T10:37:49;17.83;;;3.38;;
52294;SDS011;38243;53.212;6.574;2023-11-19T10:40:19;18.20;;;3.78;;
52294;SDS011;38243;53.212;6.574;2023-11-19T10:53:49;14.63;;;3.50;;
52294;SDS011;38243;53.212;6.574;2023-11-19T10:56:39;13.05;;;3.45;;
52294;SDS011;38243;53.212;6.574;2023-11-19T11:00:12;11.30;;;3.42;;
52294;SDS011;38243;53.212;6.574;2023-11-19T11:06:49;11.85;;;3.05;;
52294;SDS011;38243;53.212;6.574;2023-11-19T11:09:37;14.82;;;3.92;;
52294;SDS011;38243;53.212;6.574;2023-11-19T11:12:14;13.60;;;3.15;;
52294;SDS011;38243;53.212;6.574;2023-11-19T11:14:43;12.65;;;2.88;;
52294;SDS011;38243;53.212;6.574;2023-11-19T11:17:18;11.20;;;3.00;;
52294;SDS011;38243;53.212;6.574;2023-11-19T11:19:56;14.68;;;3.17;;
52294;SDS011;38243;53.212;6.574;2023-11-19T11:22:33;12.27;;;3.15;;
52294;SDS011;38243;53.212;6.574;2023-11-19T11:25:44;11.73;;;2.97;;
52294;SDS011;38243;53.212;6.574;2023-11-19T11:28:41;13.38;;;3.40;;
52294;SDS011;38243;53.212;6.574;2023-11-19T11:37:18;13.30;;;3.08;;
52294;SDS011;38243;53.212;6.574;2023-11-19T11:40:27;14.45;;;3.33;;
52294;SDS011;38243;53.212;6.574;2023-11-19T11:42:59;13.23;;;2.93;;
52294;SDS011;38243;53.212;6.574;2023-11-19T11:48:19;12.98;;;3.20;;
52294;SDS011;38243;53.212;6.574;2023-11-19T11:51:18;13.07;;;2.80;;
52294;SDS011;38243;53.212;6.574;2023-11-19T11:54:06;13.50;;;2.95;;
52294;SDS011;38243;53.212;6.574;2023-11-19T11:59:53;17.27;;;3.53;;
52294;SDS011;38243;53.212;6.574;2023-11-19T12:02:21;12.93;;;2.97;;
52294;SDS011;38243;53.212;6.574;2023-11-19T12:04:51;10.93;;;2.92;;
52294;SDS011;38243;53.212;6.574;2023-11-19T12:07:35;15.20;;;3.15;;
52294;SDS011;38243;53.212;6.574;2023-11-19T12:10:07;14.93;;;3.40;;
52294;SDS011;38243;53.212;6.574;2023-11-19T12:17:02;15.27;;;3.53;;
52294;SDS011;38243;53.212;6.574;2023-11-19T12:19:48;16.02;;;3.58;;
52294;SDS011;38243;53.212;6.574;2023-11-19T12:22:30;12.60;;;2.95;;
52294;SDS011;38243;53.212;6.574;2023-11-19T12:25:07;11.80;;;3.28;;
52294;SDS011;38243;53.212;6.574;2023-11-19T12:27:37;13.38;;;3.17;;
52294;SDS011;38243;53.212;6.574;2023-11-19T12:30:25;13.68;;;3.25;;
52294;SDS011;38243;53.212;6.574;2023-11-19T12:33:08;12.02;;;2.78;;
52294;SDS011;38243;53.212;6.574;2023-11-19T12:35:50;12.97;;;3.10;;
52294;SDS011;38243;53.212;6.574;2023-11-19T12:38:37;11.30;;;2.70;;
52294;SDS011;38243;53.212;6.574;2023-11-19T12:41:19;12.07;;;3.35;;
52294;SDS011;38243;53.212;6.574;2023-11-19T12:43:50;13.15;;;3.20;;
52294;SDS011;38243;53.212;6.574;2023-11-19T12:46:39;14.75;;;3.65;;
52294;SDS011;38243;53.212;6.574;2023-11-19T12:49:11;12.45;;;2.83;;
52294;SDS011;38243;53.212;6.574;2023-11-19T12:51:40;11.00;;;3.00;;
52294;SDS011;38243;53.212;6.574;2023-11-19T12:54:10;11.90;;;3.05;;
52294;SDS011;38243;53.212;6.574;2023-11-19T12:56:51;10.85;;;2.80;;
52294;SDS011;38243;53.212;6.574;2023-11-19T12:59:26;12.80;;;2.97;;
52294;SDS011;38243;53.212;6.574;2023-11-19T13:04:48;11.10;;;2.63;;
52294;SDS011;38243;53.212;6.574;2023-11-19T13:07:34;12.10;;;3.25;;
52294;SDS011;38243;53.212;6.574;2023-11-19T13:10:03;11.33;;;2.83;;
52294;SDS011;38243;53.212;6.574;2023-11-19T13:12:38;12.68;;;3.15;;
52294;SDS011;38243;53.212;6.574;2023-11-19T13:15:06;12.32;;;3.25;;
52294;SDS011;38243;53.212;6.574;2023-11-19T13:17:52;11.37;;;2.50;;
52294;SDS011;38243;53.212;6.574;2023-11-19T13:20:29;14.65;;;2.90;;
52294;SDS011;38243;53.212;6.574;2023-11-19T13:23:18;12.35;;;3.20;;
52294;SDS011;38243;53.212;6.574;2023-11-19T13:25:46;14.60;;;3.70;;
52294;SDS011;38243;53.212;6.574;2023-11-19T13:28:12;12.18;;;3.00;;
52294;SDS011;38243;53.212;6.574;2023-11-19T13:30:39;13.95;;;3.42;;
52294;SDS011;38243;53.212;6.574;2023-11-19T13:33:08;11.73;;;3.33;;
52294;SDS011;38243;53.212;6.574;2023-11-19T13:35:37;11.80;;;3.20;;
52294;SDS011;38243;53.212;6.574;2023-11-19T13:38:06;11.60;;;2.90;;
52294;SDS011;38243;53.212;6.574;2023-11-19T13:40:34;12.05;;;3.05;;
52294;SDS011;38243;53.212;6.574;2023-11-19T13:43:00;12.52;;;3.05;;
52294;SDS011;38243;53.212;6.574;2023-11-19T13:45:26;12.52;;;3.15;;
52294;SDS011;38243;53.212;6.574;2023-11-19T13:47:55;12.13;;;3.23;;
52294;SDS011;38243;53.212;6.574;2023-11-19T13:50:21;12.52;;;3.15;;
52294;SDS011;38243;53.212;6.574;2023-11-19T13:52:48;13.10;;;3.40;;
52294;SDS011;38243;53.212;6.574;2023-11-19T13:55:16;11.60;;;2.93;;
52294;SDS011;38243;53.212;6.574;2023-11-19T13:57:43;10.45;;;2.85;;
52294;SDS011;38243;53.212;6.574;2023-11-19T14:00:13;12.40;;;2.80;;
52294;SDS011;38243;53.212;6.574;2023-11-19T14:02:44;12.63;;;2.97;;
52294;SDS011;38243;53.212;6.574;2023-11-19T14:05:13;11.93;;;2.80;;
52294;SDS011;38243;53.212;6.574;2023-11-19T14:07:42;14.83;;;2.90;;
52294;SDS011;38243;53.212;6.574;2023-11-19T14:10:09;12.85;;;2.95;;
52294;SDS011;38243;53.212;6.574;2023-11-19T14:12:39;14.88;;;2.88;;
52294;SDS011;38243;53.212;6.574;2023-11-19T14:15:09;12.65;;;2.75;;
52294;SDS011;38243;53.212;6.574;2023-11-19T14:17:40;10.80;;;2.60;;
52294;SDS011;38243;53.212;6.574;2023-11-19T14:20:06;12.83;;;3.03;;
52294;SDS011;38243;53.212;6.574;2023-11-19T14:22:41;10.50;;;2.60;;
52294;SDS011;38243;53.212;6.574;2023-11-19T14:25:08;11.60;;;2.53;;
52294;SDS011;38243;53.212;6.574;2023-11-19T14:27:38;12.40;;;3.10;;
52294;SDS011;38243;53.212;6.574;2023-11-19T14:30:07;12.23;;;3.00;;
52294;SDS011;38243;53.212;6.574;2023-11-19T14:32:36;12.00;;;2.92;;
52294;SDS011;38243;53.212;6.574;2023-11-19T14:35:02;9.52;;;2.90;;
52294;SDS011;38243;53.212;6.574;2023-11-19T14:37:29;11.00;;;3.08;;
52294;SDS011;38243;53.212;6.574;2023-11-19T14:39:58;9.77;;;2.58;;
52294;SDS011;38243;53.212;6.574;2023-11-19T14:42:25;10.38;;;2.55;;
52294;SDS011;38243;53.212;6.574;2023-11-19T14:44:57;10.35;;;2.35;;
52294;SDS011;38243;53.212;6.574;2023-11-19T14:47:23;13.50;;;2.80;;
52294;SDS011;38243;53.212;6.574;2023-11-19T14:52:47;11.57;;;2.90;;
52294;SDS011;38243;53.212;6.574;2023-11-19T14:55:15;12.25;;;2.92;;
52294;SDS011;38243;53.212;6.574;2023-11-19T14:57:47;13.43;;;2.58;;
52294;SDS011;38243;53.212;6.574;2023-11-19T15:00:29;9.38;;;2.67;;
52294;SDS011;38243;53.212;6.574;2023-11-19T15:02:55;13.05;;;2.83;;
52294;SDS011;38243;53.212;6.574;2023-11-19T15:05:24;10.27;;;2.50;;
52294;SDS011;38243;53.212;6.574;2023-11-19T15:07:50;10.00;;;2.90;;
52294;SDS011;38243;53.212;6.574;2023-11-19T15:16:53;10.97;;;2.60;;
52294;SDS011;38243;53.212;6.574;2023-11-19T15:19:18;11.93;;;2.70;;
52294;SDS011;38243;53.212;6.574;2023-11-19T15:21:45;11.63;;;2.53;;
52294;SDS011;38243;53.212;6.574;2023-11-19T15:24:11;11.55;;;2.90;;
52294;SDS011;38243;53.212;6.574;2023-11-19T15:26:53;11.25;;;2.85;;
52294;SDS011;38243;53.212;6.574;2023-11-19T15:33:12;11.00;;;2.20;;
52294;SDS011;38243;53.212;6.574;2023-11-19T15:36:02;11.00;;;2.53;;
52294;SDS011;38243;53.212;6.574;2023-11-19T15:38:53;16.33;;;2.88;;
52294;SDS011;38243;53.212;6.574;2023-11-19T15:45:24;11.35;;;2.70;;
52294;SDS011;38243;53.212;6.574;2023-11-19T15:47:53;8.90;;;2.37;;
52294;SDS011;38243;53.212;6.574;2023-11-19T15:50:25;7.05;;;2.30;;
52294;SDS011;38243;53.212;6.574;2023-11-19T15:53:24;12.35;;;2.90;;
52294;SDS011;38243;53.212;6.574;2023-11-19T16:03:18;10.40;;;2.60;;
52294;SDS011;38243;53.212;6.574;2023-11-19T16:13:30;9.10;;;2.22;;
52294;SDS011;38243;53.212;6.574;2023-11-19T16:15:56;10.18;;;2.78;;
52294;SDS011;38243;53.212;6.574;2023-11-19T16:21:46;9.27;;;2.50;;
52294;SDS011;38243;53.212;6.574;2023-11-19T16:28:24;11.77;;;2.50;;
52294;SDS011;38243;53.212;6.574;2023-11-19T16:42:51;10.02;;;2.33;;
52294;SDS011;38243;53.212;6.574;2023-11-19T16:45:55;9.00;;;2.60;;
52294;SDS011;38243;53.212;6.574;2023-11-19T17:21:54;26.35;;;9.05;;
52294;SDS011;38243;53.212;6.574;2023-11-19T17:28:24;23.27;;;7.55;;
52294;SDS011;38243;53.212;6.574;2023-11-19T17:30:59;23.83;;;7.20;;
52294;SDS011;38243;53.212;6.574;2023-11-19T17:48:49;15.35;;;5.25;;
52294;SDS011;38243;53.212;6.574;2023-11-19T17:51:28;16.83;;;5.30;;
52294;SDS011;38243;53.212;6.574;2023-11-19T17:54:13;16.25;;;4.97;;
52294;SDS011;38243;53.212;6.574;2023-11-19T17:56:48;12.50;;;4.82;;
52294;SDS011;38243;53.212;6.574;2023-11-19T18:02:43;15.30;;;4.82;;
52294;SDS011;38243;53.212;6.574;2023-11-19T18:05:15;13.73;;;4.10;;
52294;SDS011;38243;53.212;6.574;2023-11-19T18:21:49;12.43;;;3.80;;
52294;SDS011;38243;53.212;6.574;2023-11-19T18:28:38;10.25;;;3.10;;
52294;SDS011;38243;53.212;6.574;2023-11-19T18:31:41;11.25;;;3.25;;
52294;SDS011;38243;53.212;6.574;2023-11-19T18:34:21;9.23;;;3.20;;
52294;SDS011;38243;53.212;6.574;2023-11-19T18:37:07;9.68;;;3.13;;
52294;SDS011;38243;53.212;6.574;2023-11-19T18:39:53;11.30;;;3.30;;
52294;SDS011;38243;53.212;6.574;2023-11-19T18:42:25;10.95;;;3.10;;
52294;SDS011;38243;53.212;6.574;2023-11-19T18:45:12;10.37;;;3.13;;
52294;SDS011;38243;53.212;6.574;2023-11-19T18:48:12;11.02;;;3.33;;
52294;SDS011;38243;53.212;6.574;2023-11-19T18:50:48;10.70;;;3.15;;
52294;SDS011;38243;53.212;6.574;2023-11-19T18:56:28;9.00;;;2.97;;
52294;SDS011;38243;53.212;6.574;2023-11-19T18:58:57;8.65;;;2.55;;
52294;SDS011;38243;53.212;6.574;2023-11-19T19:01:26;8.77;;;3.00;;
52294;SDS011;38243;53.212;6.574;2023-11-19T19:04:00;9.75;;;2.67;;
52294;SDS011;38243;53.212;6.574;2023-11-19T19:06:26;10.20;;;3.05;;
52294;SDS011;38243;53.212;6.574;2023-11-19T19:08:55;7.82;;;2.38;;
52294;SDS011;38243;53.212;6.574;2023-11-19T19:11:26;9.10;;;2.80;;
52294;SDS011;38243;53.212;6.574;2023-11-19T19:13:58;7.32;;;2.50;;
52294;SDS011;38243;53.212;6.574;2023-11-19T19:16:29;8.60;;;2.10;;
52294;SDS011;38243;53.212;6.574;2023-11-19T19:19:02;9.82;;;2.60;;
52294;SDS011;38243;53.212;6.574;2023-11-19T19:21:48;7.80;;;2.65;;
52294;SDS011;38243;53.212;6.574;2023-11-19T19:24:20;9.48;;;2.78;;
52294;SDS011;38243;53.212;6.574;2023-11-19T19:26:46;7.88;;;2.65;;
52294;SDS011;38243;53.212;6.574;2023-11-19T19:29:14;8.50;;;2.67;;
52294;SDS011;38243;53.212;6.574;2023-11-19T19:31:51;8.85;;;2.33;;
52294;SDS011;38243;53.212;6.574;2023-11-19T19:34:17;7.25;;;2.30;;
52294;SDS011;38243;53.212;6.574;2023-11-19T19:36:51;7.50;;;2.30;;
52294;SDS011;38243;53.212;6.574;2023-11-19T19:39:29;7.35;;;2.28;;
52294;SDS011;38243;53.212;6.574;2023-11-19T19:42:00;7.57;;;2.15;;
52294;SDS011;38243;53.212;6.574;2023-11-19T19:44:28;6.80;;;2.38;;
52294;SDS011;38243;53.212;6.574;2023-11-19T19:47:06;8.52;;;2.50;;
52294;SDS011;38243;53.212;6.574;2023-11-19T19:49:35;6.60;;;2.10;;
52294;SDS011;38243;53.212;6.574;2023-11-19T19:52:01;6.28;;;1.80;;
52294;SDS011;38243;53.212;6.574;2023-11-19T19:54:36;7.20;;;2.15;;
52294;SDS011;38243;53.212;6.574;2023-11-19T19:57:29;6.18;;;1.95;;
52294;SDS011;38243;53.212;6.574;2023-11-19T20:07:00;7.10;;;1.97;;
52294;SDS011;38243;53.212;6.574;2023-11-19T20:09:26;6.20;;;2.05;;
52294;SDS011;38243;53.212;6.574;2023-11-19T20:11:55;7.82;;;2.33;;
52294;SDS011;38243;53.212;6.574;2023-11-19T20:18:04;5.43;;;1.98;;
52294;SDS011;38243;53.212;6.574;2023-11-19T20:21:00;3.97;;;1.45;;
52294;SDS011;38243;53.212;6.574;2023-11-19T20:23:42;5.00;;;1.50;;
52294;SDS011;38243;53.212;6.574;2023-11-19T20:26:25;5.88;;;1.90;;
52294;SDS011;38243;53.212;6.574;2023-11-19T20:29:41;4.25;;;1.70;;
52294;SDS011;38243;53.212;6.574;2023-11-19T20:32:15;4.78;;;1.58;;
52294;SDS011;38243;53.212;6.574;2023-11-19T20:35:04;5.13;;;1.60;;
52294;SDS011;38243;53.212;6.574;2023-11-19T20:37:38;3.90;;;1.43;;
52294;SDS011;38243;53.212;6.574;2023-11-19T20:40:10;4.82;;;1.70;;
52294;SDS011;38243;53.212;6.574;2023-11-19T20:42:43;5.30;;;1.80;;
52294;SDS011;38243;53.212;6.574;2023-11-19T20:45:21;4.55;;;1.55;;
52294;SDS011;38243;53.212;6.574;2023-11-19T20:47:59;4.20;;;1.65;;
52294;SDS011;38243;53.212;6.574;2023-11-19T20:50:28;5.18;;;2.13;;
52294;SDS011;38243;53.212;6.574;2023-11-19T20:53:05;3.90;;;1.42;;
52294;SDS011;38243;53.212;6.574;2023-11-19T20:55:56;5.50;;;1.70;;
52294;SDS011;38243;53.212;6.574;2023-11-19T20:58:28;3.35;;;1.40;;
52294;SDS011;38243;53.212;6.574;2023-11-19T21:01:39;4.03;;;1.23;;
52294;SDS011;38243;53.212;6.574;2023-11-19T21:04:16;3.20;;;1.20;;
52294;SDS011;38243;53.212;6.574;2023-11-19T21:06:44;3.38;;;1.30;;
52294;SDS011;38243;53.212;6.574;2023-11-19T21:09:19;3.97;;;1.50;;
52294;SDS011;38243;53.212;6.574;2023-11-19T21:11:48;3.30;;;1.20;;
52294;SDS011;38243;53.212;6.574;2023-11-19T21:14:17;3.30;;;1.40;;
52294;SDS011;38243;53.212;6.574;2023-11-19T21:16:56;3.90;;;1.23;;
52294;SDS011;38243;53.212;6.574;2023-11-19T21:19:35;3.97;;;1.38;;
52294;SDS011;38243;53.212;6.574;2023-11-19T21:22:11;3.08;;;1.17;;
52294;SDS011;38243;53.212;6.574;2023-11-19T21:24:52;3.57;;;1.20;;
52294;SDS011;38243;53.212;6.574;2023-11-19T21:27:23;4.38;;;1.33;;
52294;SDS011;38243;53.212;6.574;2023-11-19T21:30:09;2.75;;;1.20;;
52294;SDS011;38243;53.212;6.574;2023-11-19T21:33:06;3.53;;;1.42;;
52294;SDS011;38243;53.212;6.574;2023-11-19T21:35:55;3.05;;;1.40;;
52294;SDS011;38243;53.212;6.574;2023-11-19T21:38:47;3.30;;;1.30;;
52294;SDS011;38243;53.212;6.574;2023-11-19T21:41:17;2.90;;;1.05;;
52294;SDS011;38243;53.212;6.574;2023-11-19T21:43:49;3.03;;;1.27;;
52294;SDS011;38243;53.212;6.574;2023-11-19T21:46:31;3.42;;;1.27;;
52294;SDS011;38243;53.212;6.574;2023-11-19T21:49:15;2.88;;;1.15;;
52294;SDS011;38243;53.212;6.574;2023-11-19T21:51:43;3.20;;;1.02;;
52294;SDS011;38243;53.212;6.574;2023-11-19T21:54:25;3.28;;;1.00;;
52294;SDS011;38243;53.212;6.574;2023-11-19T21:57:00;3.03;;;1.00;;
52294;SDS011;38243;53.212;6.574;2023-11-19T22:02:36;2.80;;;1.10;;
52294;SDS011;38243;53.212;6.574;2023-11-19T22:05:09;2.92;;;1.00;;
52294;SDS011;38243;53.212;6.574;2023-11-19T22:10:41;2.38;;;1.25;;
52294;SDS011;38243;53.212;6.574;2023-11-19T22:13:10;2.25;;;1.10;;
52294;SDS011;38243;53.212;6.574;2023-11-19T22:15:39;2.63;;;0.93;;
52294;SDS011;38243;53.212;6.574;2023-11-19T22:18:12;2.42;;;1.05;;
52294;SDS011;38243;53.212;6.574;2023-11-19T22:20:43;3.63;;;1.37;;
52294;SDS011;38243;53.212;6.574;2023-11-19T22:23:12;1.80;;;0.87;;
52294;SDS011;38243;53.212;6.574;2023-11-19T22:26:10;3.55;;;0.90;;
52294;SDS011;38243;53.212;6.574;2023-11-19T22:29:09;2.90;;;0.90;;
52294;SDS011;38243;53.212;6.574;2023-11-19T22:31:45;2.72;;;1.00;;
52294;SDS011;38243;53.212;6.574;2023-11-19T22:34:35;2.30;;;1.08;;
52294;SDS011;38243;53.212;6.574;2023-11-19T22:37:04;2.10;;;1.00;;